createdAt,value
2023-05-14T00:00:46.557Z,4.96
2023-05-14T00:01:46.555Z,4.95
2023-05-14T00:02:46.647Z,5.05
2023-05-14T00:03:46.614Z,5.17
2023-05-14T00:04:46.534Z,5.31
2023-05-14T00:05:46.556Z,5.43
2023-05-14T00:06:46.516Z,5.60
2023-05-14T00:07:46.491Z,5.74
2023-05-14T00:08:46.486Z,5.85
2023-05-14T00:09:46.480Z,5.93
2023-05-14T00:10:46.463Z,6.03
2023-05-14T00:11:46.478Z,6.11
2023-05-14T00:12:46.439Z,6.18
2023-05-14T00:13:46.445Z,6.21
2023-05-14T00:14:46.429Z,6.22
2023-05-14T00:15:46.453Z,6.26
2023-05-14T00:16:46.403Z,6.29
2023-05-14T00:17:46.532Z,6.26
2023-05-14T00:18:46.407Z,6.04
2023-05-14T00:19:46.369Z,5.93
2023-05-14T00:20:46.373Z,5.75
2023-05-14T00:21:46.354Z,5.49
2023-05-14T00:22:46.337Z,5.25
2023-05-14T00:23:46.362Z,5.12
2023-05-14T00:24:46.325Z,5.02
2023-05-14T00:25:46.315Z,4.95
2023-05-14T00:26:46.318Z,4.92
2023-05-14T00:27:46.285Z,4.94
2023-05-14T00:28:46.273Z,4.95
2023-05-14T00:29:46.306Z,4.96
2023-05-14T00:30:46.257Z,5.02
2023-05-14T00:31:46.395Z,5.09
2023-05-14T00:32:46.278Z,5.12
2023-05-14T00:33:46.257Z,5.17
2023-05-14T00:34:46.227Z,5.22
2023-05-14T00:35:46.252Z,5.28
2023-05-14T00:36:46.197Z,5.35
2023-05-14T00:37:46.191Z,5.38
2023-05-14T00:38:46.185Z,5.37
2023-05-14T00:39:46.176Z,5.35
2023-05-14T00:40:46.160Z,5.37
2023-05-14T00:41:46.170Z,5.40
2023-05-14T00:42:46.141Z,5.40
2023-05-14T00:43:46.130Z,5.41
2023-05-14T00:44:46.135Z,5.46
2023-05-14T00:45:46.119Z,5.49
2023-05-14T00:46:46.160Z,5.56
2023-05-14T00:47:46.133Z,5.63
2023-05-14T00:48:46.102Z,5.66
2023-05-14T00:49:46.073Z,5.74
2023-05-14T00:50:46.059Z,5.85
2023-05-14T00:51:46.056Z,5.89
2023-05-14T00:52:47.869Z,5.96
2023-05-14T00:53:46.051Z,6.04
2023-05-14T00:54:46.027Z,6.09
2023-05-14T00:55:46.016Z,6.13
2023-05-14T00:56:45.996Z,6.16
2023-05-14T00:57:45.997Z,6.22
2023-05-14T00:58:46.007Z,6.25
2023-05-14T00:59:46.184Z,6.22
2023-05-14T01:00:45.995Z,6.26
2023-05-14T01:01:45.959Z,6.26
2023-05-14T01:02:45.969Z,6.30
2023-05-14T01:03:46.134Z,6.26
2023-05-14T01:04:45.925Z,6.25
2023-05-14T01:05:45.933Z,6.19
2023-05-14T01:06:45.906Z,6.19
2023-05-14T01:07:45.887Z,6.14
2023-05-14T01:08:45.878Z,6.07
2023-05-14T01:09:45.897Z,6.00
2023-05-14T01:10:45.854Z,5.85
2023-05-14T01:11:45.905Z,5.70
2023-05-14T01:12:45.831Z,5.63
2023-05-14T01:13:45.825Z,5.55
2023-05-14T01:14:45.817Z,5.46
2023-05-14T01:15:45.808Z,5.41
2023-05-14T01:16:45.849Z,5.45
2023-05-14T01:17:45.844Z,5.48
2023-05-14T01:18:45.803Z,5.57
2023-05-14T01:19:45.767Z,5.67
2023-05-14T01:20:45.744Z,5.73
2023-05-14T01:21:45.739Z,5.85
2023-05-14T01:22:45.729Z,5.95
2023-05-14T01:23:45.836Z,5.98
2023-05-14T01:24:45.707Z,6.00
2023-05-14T01:25:45.694Z,6.07
2023-05-14T01:26:45.678Z,6.09
2023-05-14T01:27:45.681Z,6.11
2023-05-14T01:28:45.654Z,6.11
2023-05-14T01:29:45.688Z,6.13
2023-05-14T01:30:45.643Z,6.13
2023-05-14T01:31:45.709Z,6.10
2023-05-14T01:32:45.647Z,6.13
2023-05-14T01:33:45.618Z,6.10
2023-05-14T01:34:45.595Z,6.11
2023-05-14T01:35:45.661Z,6.11
2023-05-14T01:36:45.587Z,6.13
2023-05-14T01:37:45.566Z,6.18
2023-05-14T01:38:45.649Z,6.18
2023-05-14T01:39:45.567Z,6.19
2023-05-14T01:40:45.541Z,6.21
2023-05-14T01:41:45.564Z,6.29
2023-05-14T01:42:45.527Z,6.32
2023-05-14T01:43:45.507Z,6.33
2023-05-14T01:44:45.516Z,6.33
2023-05-14T01:45:45.501Z,6.35
2023-05-14T01:46:45.486Z,6.33
2023-05-14T01:47:45.562Z,6.35
2023-05-14T01:48:45.476Z,6.33
2023-05-14T01:49:45.450Z,6.29
2023-05-14T01:50:45.437Z,6.25
2023-05-14T01:51:45.440Z,6.25
2023-05-14T01:52:45.416Z,6.25
2023-05-14T01:53:45.452Z,6.22
2023-05-14T01:54:45.400Z,6.18
2023-05-14T01:55:45.393Z,6.09
2023-05-14T01:56:45.377Z,6.01
2023-05-14T01:57:45.322Z,5.98
2023-05-14T01:58:45.308Z,5.92
2023-05-14T01:59:45.319Z,5.89
2023-05-14T02:00:45.287Z,5.83
2023-05-14T02:01:45.345Z,5.82
2023-05-14T02:02:45.301Z,5.75
2023-05-14T02:03:45.311Z,5.71
2023-05-14T02:04:45.249Z,5.63
2023-05-14T02:05:45.268Z,5.59
2023-05-14T02:06:45.238Z,5.52
2023-05-14T02:07:45.230Z,5.45
2023-05-14T02:08:45.207Z,5.41
2023-05-14T02:09:45.200Z,5.37
2023-05-14T02:10:45.175Z,5.32
2023-05-14T02:11:45.200Z,5.32
2023-05-14T02:12:45.162Z,5.34
2023-05-14T02:13:45.162Z,5.37
2023-05-14T02:14:45.140Z,5.30
2023-05-14T02:15:45.205Z,5.20
2023-05-14T02:16:45.123Z,5.19
2023-05-14T02:17:45.187Z,5.10
2023-05-14T02:18:45.162Z,5.05
2023-05-14T02:19:45.102Z,4.96
2023-05-14T02:20:45.112Z,4.92
2023-05-14T02:21:45.074Z,4.86
2023-05-14T02:22:45.059Z,4.77
2023-05-14T02:23:45.074Z,4.77
2023-05-14T02:24:45.054Z,4.69
2023-05-14T02:25:45.033Z,4.72
2023-05-14T02:26:45.024Z,4.73
2023-05-14T02:27:45.012Z,4.73
2023-05-14T02:28:44.999Z,4.75
2023-05-14T02:29:45.036Z,4.79
2023-05-14T02:30:44.986Z,4.67
2023-05-14T02:31:45.008Z,4.70
2023-05-14T02:32:45.059Z,4.77
2023-05-14T02:33:44.956Z,4.88
2023-05-14T02:34:44.933Z,4.95
2023-05-14T02:35:44.945Z,5.09
2023-05-14T02:36:44.920Z,5.20
2023-05-14T02:37:44.899Z,5.32
2023-05-14T02:38:44.897Z,5.43
2023-05-14T02:39:44.903Z,5.53
2023-05-14T02:40:44.876Z,5.60
2023-05-14T02:41:44.894Z,5.67
2023-05-14T02:42:44.866Z,5.71
2023-05-14T02:43:44.854Z,5.75
2023-05-14T02:44:44.832Z,5.82
2023-05-14T02:45:44.860Z,5.92
2023-05-14T02:46:44.829Z,5.95
2023-05-14T02:47:44.848Z,6.00
2023-05-14T02:48:44.801Z,6.01
2023-05-14T02:49:44.781Z,6.04
2023-05-14T02:50:44.766Z,6.07
2023-05-14T02:51:44.789Z,6.10
2023-05-14T02:52:44.759Z,6.09
2023-05-14T02:53:44.780Z,6.11
2023-05-14T02:54:44.732Z,6.10
2023-05-14T02:55:44.727Z,6.09
2023-05-14T02:56:44.711Z,6.09
2023-05-14T02:57:44.712Z,6.13
2023-05-14T02:58:44.694Z,6.16
2023-05-14T02:59:44.743Z,6.16
2023-05-14T03:00:44.702Z,6.21
2023-05-14T03:01:44.696Z,6.19
2023-05-14T03:02:44.776Z,6.19
2023-05-14T03:03:44.645Z,6.19
2023-05-14T03:04:44.649Z,6.25
2023-05-14T03:05:44.645Z,6.25
2023-05-14T03:06:44.617Z,6.35
2023-05-14T03:07:44.616Z,6.36
2023-05-14T03:08:44.593Z,6.35
2023-05-14T03:09:44.588Z,6.33
2023-05-14T03:10:44.575Z,6.26
2023-05-14T03:11:44.595Z,6.28
2023-05-14T03:12:44.557Z,6.29
2023-05-14T03:13:44.543Z,6.29
2023-05-14T03:14:44.534Z,6.32
2023-05-14T03:15:44.566Z,6.38
2023-05-14T03:16:44.590Z,6.40
2023-05-14T03:17:44.553Z,6.43
2023-05-14T03:18:44.514Z,6.48
2023-05-14T03:19:44.493Z,6.50
2023-05-14T03:20:44.476Z,6.56
2023-05-14T03:21:44.475Z,6.58
2023-05-14T03:22:44.445Z,6.61
2023-05-14T03:23:44.472Z,6.65
2023-05-14T03:24:44.440Z,6.66
2023-05-14T03:25:44.423Z,6.68
2023-05-14T03:26:44.413Z,6.71
2023-05-14T03:27:44.405Z,6.72
2023-05-14T03:28:44.399Z,6.76
2023-05-14T03:29:44.409Z,6.76
2023-05-14T03:30:44.487Z,6.72
2023-05-14T03:31:44.371Z,6.72
2023-05-14T03:32:44.377Z,6.72
2023-05-14T03:33:44.334Z,6.71
2023-05-14T03:34:44.330Z,6.69
2023-05-14T03:35:44.345Z,6.66
2023-05-14T03:36:44.314Z,6.66
2023-05-14T03:37:44.313Z,6.68
2023-05-14T03:38:44.282Z,6.66
2023-05-14T03:39:44.290Z,6.62
2023-05-14T03:40:44.276Z,6.61
2023-05-14T03:41:44.290Z,6.58
2023-05-14T03:42:44.246Z,6.53
2023-05-14T03:43:44.239Z,6.59
2023-05-14T03:44:44.222Z,6.59
2023-05-14T03:45:44.238Z,6.59
2023-05-14T03:46:44.207Z,6.61
2023-05-14T03:47:44.286Z,6.65
2023-05-14T03:48:44.251Z,6.68
2023-05-14T03:49:44.178Z,6.69
2023-05-14T03:50:44.165Z,6.69
2023-05-14T03:51:44.158Z,6.69
2023-05-14T03:52:44.164Z,6.73
2023-05-14T03:53:44.358Z,6.72
2023-05-14T03:54:44.149Z,6.73
2023-05-14T03:55:44.122Z,6.73
2023-05-14T03:56:44.105Z,6.76
2023-05-14T03:57:44.094Z,6.76
2023-05-14T03:58:44.088Z,6.73
2023-05-14T03:59:44.109Z,6.71
2023-05-14T04:00:44.070Z,6.66
2023-05-14T04:01:44.063Z,6.63
2023-05-14T04:02:44.111Z,6.62
2023-05-14T04:03:44.216Z,6.69
2023-05-14T04:04:44.082Z,6.73
2023-05-14T04:05:44.049Z,6.80
2023-05-14T04:06:44.025Z,6.79
2023-05-14T04:07:43.994Z,6.79
2023-05-14T04:08:43.998Z,6.80
2023-05-14T04:09:43.979Z,6.79
2023-05-14T04:10:43.968Z,6.80
2023-05-14T04:11:44.758Z,6.81
2023-05-14T04:12:43.948Z,6.80
2023-05-14T04:13:43.939Z,6.86
2023-05-14T04:14:43.939Z,6.91
2023-05-14T04:15:43.910Z,6.91
2023-05-14T04:16:43.998Z,6.95
2023-05-14T04:17:43.973Z,6.98
2023-05-14T04:18:43.950Z,7.04
2023-05-14T04:19:43.875Z,7.12
2023-05-14T04:20:43.870Z,7.19
2023-05-14T04:21:43.864Z,7.22
2023-05-14T04:22:43.860Z,7.26
2023-05-14T04:23:43.872Z,7.29
2023-05-14T04:24:43.825Z,7.32
2023-05-14T04:25:43.815Z,7.34
2023-05-14T04:26:43.804Z,7.32
2023-05-14T04:27:43.805Z,7.38
2023-05-14T04:28:43.781Z,7.40
2023-05-14T04:29:43.785Z,7.47
2023-05-14T04:30:43.765Z,7.53
2023-05-14T04:31:43.762Z,7.56
2023-05-14T04:32:43.772Z,7.58
2023-05-14T04:33:43.732Z,7.59
2023-05-14T04:34:43.722Z,7.63
2023-05-14T04:35:43.735Z,7.72
2023-05-14T04:36:43.694Z,7.79
2023-05-14T04:37:43.682Z,7.87
2023-05-14T04:38:43.675Z,7.94
2023-05-14T04:39:43.712Z,7.99
2023-05-14T04:40:43.659Z,8.04
2023-05-14T04:41:43.673Z,8.07
2023-05-14T04:42:43.631Z,8.11
2023-05-14T04:43:43.615Z,8.18
2023-05-14T04:44:43.613Z,8.33
2023-05-14T04:45:43.610Z,8.50
2023-05-14T04:46:43.594Z,8.65
2023-05-14T04:47:43.654Z,8.78
2023-05-14T04:48:43.569Z,8.99
2023-05-14T04:49:43.571Z,9.32
2023-05-14T04:50:43.559Z,9.68
2023-05-14T04:51:43.550Z,9.93
2023-05-14T04:52:43.535Z,9.96
2023-05-14T04:53:43.731Z,10.00
2023-05-14T04:54:43.565Z,9.96
2023-05-14T04:55:43.492Z,9.88
2023-05-14T04:56:43.502Z,9.83
2023-05-14T04:57:43.473Z,9.82
2023-05-14T04:58:43.479Z,9.81
2023-05-14T04:59:43.484Z,9.78
2023-05-14T05:00:43.447Z,9.76
2023-05-14T05:01:43.568Z,9.76
2023-05-14T05:02:43.464Z,9.78
2023-05-14T05:03:43.506Z,9.76
2023-05-14T05:04:43.412Z,9.76
2023-05-14T05:05:43.427Z,9.82
2023-05-14T05:06:43.383Z,9.96
2023-05-14T05:07:43.382Z,10.07
2023-05-14T05:08:43.379Z,10.19
2023-05-14T05:09:43.352Z,10.34
2023-05-14T05:10:43.352Z,10.62
2023-05-14T05:11:43.366Z,10.91
2023-05-14T05:12:43.335Z,11.17
2023-05-14T05:13:43.330Z,11.29
2023-05-14T05:14:43.339Z,11.50
2023-05-14T05:15:43.329Z,11.62
2023-05-14T05:16:43.287Z,11.43
2023-05-14T05:17:43.347Z,11.39
2023-05-14T05:18:43.338Z,11.38
2023-05-14T05:19:44.426Z,11.38
2023-05-14T05:20:43.250Z,11.49
2023-05-14T05:21:43.239Z,11.54
2023-05-14T05:22:43.235Z,11.83
2023-05-14T05:23:43.240Z,12.04
2023-05-14T05:24:43.220Z,12.05
2023-05-14T05:25:43.202Z,12.13
2023-05-14T05:26:43.190Z,12.24
2023-05-14T05:27:43.173Z,12.39
2023-05-14T05:28:43.171Z,12.48
2023-05-14T05:29:43.234Z,12.59
2023-05-14T05:30:43.150Z,12.70
2023-05-14T05:31:43.184Z,12.92
2023-05-14T05:32:43.179Z,13.11
2023-05-14T05:33:43.123Z,13.22
2023-05-14T05:34:43.106Z,13.07
2023-05-14T05:35:43.118Z,13.18
2023-05-14T05:36:43.094Z,13.25
2023-05-14T05:37:43.097Z,13.30
2023-05-14T05:38:43.080Z,13.20
2023-05-14T05:39:43.062Z,13.25
2023-05-14T05:40:43.061Z,13.22
2023-05-14T05:41:43.073Z,13.07
2023-05-14T05:42:43.027Z,13.06
2023-05-14T05:43:43.005Z,13.12
2023-05-14T05:44:43.003Z,12.96
2023-05-14T05:45:42.991Z,12.89
2023-05-14T05:46:43.045Z,13.00
2023-05-14T05:47:43.038Z,13.20
2023-05-14T05:48:42.965Z,13.17
2023-05-14T05:49:42.950Z,13.07
2023-05-14T05:50:42.945Z,13.20
2023-05-14T05:51:42.923Z,13.32
2023-05-14T05:52:42.912Z,13.43
2023-05-14T05:53:42.940Z,13.61
2023-05-14T05:54:42.902Z,13.79
2023-05-14T05:55:42.893Z,14.01
2023-05-14T05:56:42.897Z,14.17
2023-05-14T05:57:42.864Z,14.25
2023-05-14T05:58:42.858Z,14.39
2023-05-14T05:59:42.870Z,14.38
2023-05-14T06:00:42.837Z,14.21
2023-05-14T06:01:42.874Z,14.13
2023-05-14T06:02:43.035Z,14.20
2023-05-14T06:03:42.815Z,14.27
2023-05-14T06:04:42.809Z,14.42
2023-05-14T06:05:42.875Z,14.60
2023-05-14T06:06:42.772Z,14.75
2023-05-14T06:07:42.771Z,14.94
2023-05-14T06:08:42.767Z,15.09
2023-05-14T06:09:42.749Z,15.27
2023-05-14T06:10:42.732Z,15.33
2023-05-14T06:11:42.742Z,15.28
2023-05-14T06:12:42.718Z,15.41
2023-05-14T06:13:42.689Z,15.51
2023-05-14T06:14:42.685Z,15.61
2023-05-14T06:15:42.674Z,15.68
2023-05-14T06:16:42.766Z,15.81
2023-05-14T06:17:42.745Z,15.99
2023-05-14T06:18:42.675Z,16.14
2023-05-14T06:19:42.636Z,16.26
2023-05-14T06:20:42.639Z,16.35
2023-05-14T06:21:42.613Z,16.44
2023-05-14T06:22:42.610Z,16.52
2023-05-14T06:23:42.626Z,16.53
2023-05-14T06:24:42.594Z,16.48
2023-05-14T06:25:42.574Z,16.56
2023-05-14T06:26:42.564Z,16.65
2023-05-14T06:27:42.557Z,16.70
2023-05-14T06:28:42.557Z,16.68
2023-05-14T06:29:42.614Z,16.75
2023-05-14T06:30:42.520Z,16.73
2023-05-14T06:31:42.556Z,16.80
2023-05-14T06:32:42.544Z,16.92
2023-05-14T06:33:42.486Z,16.99
2023-05-14T06:34:42.483Z,17.13
2023-05-14T06:35:42.487Z,17.25
2023-05-14T06:36:42.467Z,17.38
2023-05-14T06:37:42.450Z,17.47
2023-05-14T06:38:42.441Z,17.38
2023-05-14T06:39:42.430Z,17.50
2023-05-14T06:40:42.440Z,17.64
2023-05-14T06:41:42.431Z,17.76
2023-05-14T06:42:42.392Z,17.84
2023-05-14T06:43:42.386Z,17.88
2023-05-14T06:44:42.373Z,17.99
2023-05-14T06:45:42.369Z,18.02
2023-05-14T06:46:42.361Z,17.89
2023-05-14T06:47:42.398Z,17.91
2023-05-14T06:48:42.389Z,17.99
2023-05-14T06:49:42.317Z,18.02
2023-05-14T06:50:42.314Z,18.02
2023-05-14T06:51:42.307Z,17.87
2023-05-14T06:52:42.285Z,17.94
2023-05-14T06:53:42.724Z,18.12
2023-05-14T06:54:42.279Z,18.19
2023-05-14T06:55:42.284Z,18.34
2023-05-14T06:56:42.251Z,18.50
2023-05-14T06:57:42.249Z,18.70
2023-05-14T06:58:42.238Z,18.80
2023-05-14T06:59:42.251Z,18.80
2023-05-14T07:00:42.215Z,18.94
2023-05-14T07:01:42.248Z,19.02
2023-05-14T07:02:42.207Z,19.06
2023-05-14T07:03:42.196Z,19.21
2023-05-14T07:04:42.321Z,19.15
2023-05-14T07:05:42.188Z,19.17
2023-05-14T07:06:42.173Z,19.13
2023-05-14T07:07:42.146Z,19.29
2023-05-14T07:08:42.148Z,19.50
2023-05-14T07:09:42.119Z,19.63
2023-05-14T07:10:42.120Z,19.79
2023-05-14T07:11:42.135Z,19.95
2023-05-14T07:12:42.096Z,20.08
2023-05-14T07:13:42.097Z,20.21
2023-05-14T07:14:42.069Z,20.39
2023-05-14T07:15:42.054Z,20.41
2023-05-14T07:16:42.082Z,20.38
2023-05-14T07:17:42.093Z,20.46
2023-05-14T07:18:42.063Z,20.56
2023-05-14T07:19:42.013Z,20.71
2023-05-14T07:20:42.003Z,20.81
2023-05-14T07:21:41.994Z,20.90
2023-05-14T07:22:41.995Z,21.04
2023-05-14T07:23:42.003Z,21.06
2023-05-14T07:24:41.966Z,21.17
2023-05-14T07:25:41.954Z,21.23
2023-05-14T07:26:41.942Z,21.24
2023-05-14T07:27:41.938Z,21.39
2023-05-14T07:28:41.928Z,21.42
2023-05-14T07:29:41.936Z,21.42
2023-05-14T07:30:41.906Z,21.32
2023-05-14T07:31:41.910Z,21.19
2023-05-14T07:32:41.892Z,21.24
2023-05-14T07:33:41.869Z,21.39
2023-05-14T07:34:41.855Z,21.42
2023-05-14T07:35:41.888Z,21.50
2023-05-14T07:36:41.830Z,21.64
2023-05-14T07:37:41.822Z,21.75
2023-05-14T07:38:41.828Z,21.82
2023-05-14T07:39:41.813Z,22.01
2023-05-14T07:40:41.802Z,22.19
2023-05-14T07:41:41.806Z,22.25
2023-05-14T07:42:41.767Z,22.10
2023-05-14T07:43:41.765Z,21.97
2023-05-14T07:44:41.749Z,21.75
2023-05-14T07:45:41.738Z,21.90
2023-05-14T07:46:41.730Z,21.99
2023-05-14T07:47:41.838Z,22.13
2023-05-14T07:48:41.775Z,22.25
2023-05-14T07:49:41.695Z,22.35
2023-05-14T07:50:41.691Z,22.52
2023-05-14T07:51:41.680Z,22.68
2023-05-14T07:52:41.673Z,22.80
2023-05-14T07:53:41.685Z,22.83
2023-05-14T07:54:41.655Z,22.99
2023-05-14T07:55:41.644Z,23.14
2023-05-14T07:56:41.637Z,23.27
2023-05-14T07:57:41.623Z,23.27
2023-05-14T07:58:41.627Z,23.38
2023-05-14T07:59:41.634Z,23.46
2023-05-14T08:00:41.587Z,23.22
2023-05-14T08:01:41.613Z,23.11
2023-05-14T08:02:41.625Z,23.05
2023-05-14T08:03:41.649Z,23.11
2023-05-14T08:04:41.550Z,23.23
2023-05-14T08:05:41.579Z,23.24
2023-05-14T08:06:41.529Z,23.04
2023-05-14T08:07:41.529Z,23.12
2023-05-14T08:08:41.516Z,23.08
2023-05-14T08:09:41.495Z,23.04
2023-05-14T08:10:41.497Z,23.24
2023-05-14T08:11:41.501Z,23.42
2023-05-14T08:12:41.468Z,23.55
2023-05-14T08:13:41.459Z,23.71
2023-05-14T08:14:41.448Z,23.65
2023-05-14T08:15:41.441Z,23.47
2023-05-14T08:16:41.455Z,23.49
2023-05-14T08:17:41.515Z,23.67
2023-05-14T08:18:41.422Z,23.87
2023-05-14T08:19:41.398Z,24.12
2023-05-14T08:20:41.394Z,24.35
2023-05-14T08:21:41.377Z,24.41
2023-05-14T08:22:41.400Z,24.60
2023-05-14T08:23:41.403Z,24.80
2023-05-14T08:24:41.348Z,24.90
2023-05-14T08:25:41.354Z,25.07
2023-05-14T08:26:41.329Z,25.27
2023-05-14T08:27:41.313Z,25.46
2023-05-14T08:28:41.295Z,25.67
2023-05-14T08:29:41.562Z,25.87
2023-05-14T08:30:41.313Z,25.99
2023-05-14T08:31:41.280Z,25.98
2023-05-14T08:32:41.300Z,26.06
2023-05-14T08:33:41.257Z,26.20
2023-05-14T08:34:42.808Z,26.20
2023-05-14T08:35:41.277Z,26.22
2023-05-14T08:36:41.216Z,26.05
2023-05-14T08:37:41.224Z,26.11
2023-05-14T08:38:41.191Z,26.15
2023-05-14T08:39:41.186Z,25.86
2023-05-14T08:40:41.184Z,25.80
2023-05-14T08:41:41.254Z,25.24
2023-05-14T08:42:41.171Z,24.45
2023-05-14T08:43:41.149Z,24.22
2023-05-14T08:44:41.124Z,24.44
2023-05-14T08:45:41.119Z,24.76
2023-05-14T08:46:41.107Z,24.98
2023-05-14T08:47:41.138Z,24.94
2023-05-14T08:48:41.123Z,24.92
2023-05-14T08:49:41.105Z,25.06
2023-05-14T08:50:41.068Z,25.37
2023-05-14T08:51:41.063Z,25.74
2023-05-14T08:52:41.042Z,25.93
2023-05-14T08:53:41.052Z,26.15
2023-05-14T08:54:41.012Z,26.35
2023-05-14T08:55:41.018Z,26.49
2023-05-14T08:56:41.005Z,26.69
2023-05-14T08:57:41.001Z,26.84
2023-05-14T08:58:40.985Z,26.79
2023-05-14T08:59:40.995Z,26.80
2023-05-14T09:00:40.961Z,26.81
2023-05-14T09:01:41.006Z,26.94
2023-05-14T09:02:41.078Z,27.05
2023-05-14T09:03:40.958Z,27.06
2023-05-14T09:04:40.920Z,27.09
2023-05-14T09:05:40.937Z,27.11
2023-05-14T09:06:40.898Z,27.01
2023-05-14T09:07:40.907Z,27.10
2023-05-14T09:08:40.884Z,27.33
2023-05-14T09:09:40.901Z,27.53
2023-05-14T09:10:40.863Z,27.70
2023-05-14T09:11:40.884Z,27.74
2023-05-14T09:12:40.858Z,27.84
2023-05-14T09:13:40.831Z,27.88
2023-05-14T09:14:40.822Z,27.82
2023-05-14T09:15:40.814Z,27.88
2023-05-14T09:16:40.820Z,27.76
2023-05-14T09:17:40.980Z,27.41
2023-05-14T09:18:40.863Z,25.75
2023-05-14T09:19:40.783Z,24.19
2023-05-14T09:20:40.769Z,23.53
2023-05-14T09:21:40.755Z,23.76
2023-05-14T09:22:40.751Z,23.89
2023-05-14T09:23:40.755Z,24.37
2023-05-14T09:24:40.732Z,24.91
2023-05-14T09:25:40.718Z,25.43
2023-05-14T09:26:40.696Z,25.90
2023-05-14T09:27:40.685Z,26.29
2023-05-14T09:28:40.675Z,26.49
2023-05-14T09:29:40.701Z,26.58
2023-05-14T09:30:40.664Z,26.65
2023-05-14T09:31:40.659Z,26.47
2023-05-14T09:32:40.694Z,26.47
2023-05-14T09:33:40.631Z,26.31
2023-05-14T09:34:40.618Z,26.43
2023-05-14T09:35:40.630Z,26.80
2023-05-14T09:36:40.600Z,27.13
2023-05-14T09:37:40.591Z,27.46
2023-05-14T09:38:40.581Z,27.36
2023-05-14T09:39:40.566Z,27.51
2023-05-14T09:40:40.551Z,27.70
2023-05-14T09:41:40.597Z,27.92
2023-05-14T09:42:40.541Z,28.16
2023-05-14T09:43:40.532Z,28.22
2023-05-14T09:44:40.511Z,28.40
2023-05-14T09:45:40.512Z,28.44
2023-05-14T09:46:40.498Z,28.23
2023-05-14T09:47:40.591Z,28.26
2023-05-14T09:48:40.531Z,28.33
2023-05-14T09:49:40.472Z,28.35
2023-05-14T09:50:40.452Z,28.47
2023-05-14T09:51:40.455Z,28.59
2023-05-14T09:52:40.432Z,28.70
2023-05-14T09:53:40.500Z,28.84
2023-05-14T09:54:40.411Z,29.03
2023-05-14T09:55:40.407Z,29.23
2023-05-14T09:56:40.400Z,29.29
2023-05-14T09:57:40.388Z,29.06
2023-05-14T09:58:40.379Z,28.87
2023-05-14T09:59:40.395Z,28.68
2023-05-14T10:00:40.354Z,28.75
2023-05-14T10:01:40.402Z,28.90
2023-05-14T10:02:40.387Z,29.08
2023-05-14T10:03:40.325Z,29.28
2023-05-14T10:04:40.380Z,29.34
2023-05-14T10:05:40.333Z,29.25
2023-05-14T10:06:40.291Z,29.26
2023-05-14T10:07:40.289Z,29.38
2023-05-14T10:08:40.280Z,29.33
2023-05-14T10:09:40.267Z,29.22
2023-05-14T10:10:40.262Z,29.26
2023-05-14T10:11:40.271Z,29.18
2023-05-14T10:12:40.248Z,29.26
2023-05-14T10:13:40.236Z,29.45
2023-05-14T10:14:40.223Z,29.49
2023-05-14T10:15:40.225Z,29.43
2023-05-14T10:16:40.231Z,28.91
2023-05-14T10:17:40.259Z,28.47
2023-05-14T10:18:40.230Z,28.07
2023-05-14T10:19:40.180Z,28.06
2023-05-14T10:20:40.163Z,28.31
2023-05-14T10:21:40.151Z,28.59
2023-05-14T10:22:40.139Z,28.82
2023-05-14T10:23:40.154Z,29.04
2023-05-14T10:24:40.114Z,29.01
2023-05-14T10:25:40.120Z,29.11
2023-05-14T10:26:40.104Z,29.29
2023-05-14T10:27:40.090Z,29.49
2023-05-14T10:28:40.082Z,29.52
2023-05-14T10:29:40.086Z,29.68
2023-05-14T10:30:40.052Z,29.70
2023-05-14T10:31:40.184Z,29.77
2023-05-14T10:32:40.051Z,29.84
2023-05-14T10:33:40.035Z,29.87
2023-05-14T10:34:40.015Z,29.72
2023-05-14T10:35:40.026Z,29.71
2023-05-14T10:36:39.991Z,29.87
2023-05-14T10:37:39.982Z,30.05
2023-05-14T10:38:39.983Z,30.26
2023-05-14T10:39:39.960Z,30.26
2023-05-14T10:40:39.951Z,30.30
2023-05-14T10:41:39.963Z,30.45
2023-05-14T10:42:39.940Z,30.59
2023-05-14T10:43:39.921Z,30.68
2023-05-14T10:44:39.914Z,30.65
2023-05-14T10:45:39.900Z,30.56
2023-05-14T10:46:39.944Z,30.64
2023-05-14T10:47:40.008Z,30.53
2023-05-14T10:48:39.878Z,30.45
2023-05-14T10:49:43.510Z,30.54
2023-05-14T10:50:39.877Z,30.67
2023-05-14T10:51:39.871Z,30.80
2023-05-14T10:52:39.836Z,30.87
2023-05-14T10:53:39.847Z,30.90
2023-05-14T10:54:39.859Z,30.96
2023-05-14T10:55:39.807Z,30.94
2023-05-14T10:56:39.792Z,30.96
2023-05-14T10:57:39.806Z,31.02
2023-05-14T10:58:39.782Z,31.06
2023-05-14T10:59:39.795Z,31.11
2023-05-14T11:00:39.757Z,31.12
2023-05-14T11:01:39.752Z,30.67
2023-05-14T11:02:39.781Z,30.43
2023-05-14T11:03:39.784Z,30.23
2023-05-14T11:04:39.729Z,29.66
2023-05-14T11:05:39.733Z,29.25
2023-05-14T11:06:39.707Z,28.80
2023-05-14T11:07:39.691Z,28.40
2023-05-14T11:08:39.723Z,28.23
2023-05-14T11:09:39.677Z,28.29
2023-05-14T11:10:39.671Z,27.82
2023-05-14T11:11:39.687Z,27.39
2023-05-14T11:12:39.643Z,27.13
2023-05-14T11:13:39.640Z,26.47
2023-05-14T11:14:39.625Z,26.21
2023-05-14T11:15:39.624Z,25.99
2023-05-14T11:16:39.608Z,25.79
2023-05-14T11:17:39.678Z,25.64
2023-05-14T11:18:39.610Z,25.49
2023-05-14T11:19:39.581Z,25.34
2023-05-14T11:20:39.564Z,25.15
2023-05-14T11:21:39.601Z,24.98
2023-05-14T11:22:39.538Z,24.82
2023-05-14T11:23:39.571Z,24.69
2023-05-14T11:24:39.535Z,24.88
2023-05-14T11:25:39.516Z,25.38
2023-05-14T11:26:39.566Z,25.83
2023-05-14T11:27:39.521Z,26.32
2023-05-14T11:28:39.480Z,26.80
2023-05-14T11:29:39.502Z,27.26
2023-05-14T11:30:39.458Z,27.71
2023-05-14T11:31:39.513Z,28.11
2023-05-14T11:32:39.499Z,28.48
2023-05-14T11:33:39.434Z,28.78
2023-05-14T11:34:39.424Z,28.93
2023-05-14T11:35:39.442Z,29.04
2023-05-14T11:36:39.404Z,29.04
2023-05-14T11:37:39.399Z,29.13
2023-05-14T11:38:39.389Z,29.25
2023-05-14T11:39:39.374Z,29.41
2023-05-14T11:40:39.382Z,29.40
2023-05-14T11:41:39.375Z,29.43
2023-05-14T11:42:39.348Z,29.44
2023-05-14T11:43:39.366Z,29.38
2023-05-14T11:44:39.316Z,29.25
2023-05-14T11:45:39.328Z,29.31
2023-05-14T11:46:39.351Z,29.35
2023-05-14T11:47:39.380Z,29.43
2023-05-14T11:48:39.279Z,29.41
2023-05-14T11:49:39.272Z,29.49
2023-05-14T11:50:39.257Z,29.53
2023-05-14T11:51:39.252Z,29.53
2023-05-14T11:52:39.233Z,29.59
2023-05-14T11:53:39.270Z,29.60
2023-05-14T11:54:39.230Z,29.62
2023-05-14T11:55:39.211Z,29.75
2023-05-14T11:56:39.199Z,29.84
2023-05-14T11:57:39.199Z,29.78
2023-05-14T11:58:39.189Z,29.68
2023-05-14T11:59:39.196Z,29.71
2023-05-14T12:00:39.165Z,29.71
2023-05-14T12:01:39.160Z,29.33
2023-05-14T12:02:39.255Z,29.26
2023-05-14T12:03:39.225Z,28.85
2023-05-14T12:04:39.194Z,28.90
2023-05-14T12:05:39.154Z,28.84
2023-05-14T12:06:39.099Z,28.81
2023-05-14T12:07:39.102Z,28.80
2023-05-14T12:08:39.083Z,28.81
2023-05-14T12:09:39.077Z,28.80
2023-05-14T12:10:39.058Z,28.75
2023-05-14T12:11:39.081Z,28.82
2023-05-14T12:12:39.048Z,28.81
2023-05-14T12:13:39.034Z,28.97
2023-05-14T12:14:39.022Z,29.07
2023-05-14T12:15:39.026Z,29.15
2023-05-14T12:16:39.068Z,29.00
2023-05-14T12:17:39.063Z,28.75
2023-05-14T12:18:39.128Z,28.81
2023-05-14T12:19:38.977Z,28.88
2023-05-14T12:20:38.969Z,28.96
2023-05-14T12:21:38.958Z,29.16
2023-05-14T12:22:38.953Z,29.31
2023-05-14T12:23:38.957Z,29.43
2023-05-14T12:24:38.930Z,29.55
2023-05-14T12:25:38.924Z,29.70
2023-05-14T12:26:38.911Z,29.72
2023-05-14T12:27:38.895Z,29.81
2023-05-14T12:28:38.918Z,30.02
2023-05-14T12:29:38.909Z,30.07
2023-05-14T12:30:38.866Z,30.00
2023-05-14T12:31:38.885Z,30.03
2023-05-14T12:32:38.879Z,30.03
2023-05-14T12:33:38.845Z,29.99
2023-05-14T12:34:38.831Z,30.03
2023-05-14T12:35:38.841Z,30.14
2023-05-14T12:36:38.797Z,30.19
2023-05-14T12:37:38.796Z,30.21
2023-05-14T12:38:38.785Z,30.23
2023-05-14T12:39:38.769Z,30.18
2023-05-14T12:40:38.772Z,30.02
2023-05-14T12:41:38.777Z,29.81
2023-05-14T12:42:38.747Z,29.63
2023-05-14T12:43:38.736Z,29.47
2023-05-14T12:44:38.725Z,29.49
2023-05-14T12:45:38.717Z,29.57
2023-05-14T12:46:38.734Z,29.66
2023-05-14T12:47:38.836Z,29.72
2023-05-14T12:48:38.699Z,29.72
2023-05-14T12:49:38.682Z,29.66
2023-05-14T12:50:38.665Z,29.62
2023-05-14T12:51:38.657Z,29.63
2023-05-14T12:52:39.948Z,29.66
2023-05-14T12:53:38.673Z,29.71
2023-05-14T12:54:39.135Z,29.68
2023-05-14T12:55:38.612Z,29.78
2023-05-14T12:56:38.609Z,29.90
2023-05-14T12:57:38.728Z,29.93
2023-05-14T12:58:38.590Z,29.84
2023-05-14T12:59:38.596Z,29.90
2023-05-14T13:00:38.648Z,29.94
2023-05-14T13:01:38.599Z,29.94
2023-05-14T13:02:42.064Z,30.00